createdAt,value
2022-10-15T00:00:07.898Z,42.70
2022-10-15T00:02:34.353Z,43.17
2022-10-15T00:05:01.057Z,40.80
2022-10-15T00:07:28.456Z,42.33
2022-10-15T00:09:55.039Z,41.73
2022-10-15T00:12:21.466Z,39.03
2022-10-15T00:14:47.880Z,39.57
2022-10-15T00:17:14.276Z,39.67
2022-10-15T00:19:40.660Z,41.13
2022-10-15T00:22:07.120Z,43.27
2022-10-15T00:24:33.566Z,40.43
2022-10-15T00:27:00.013Z,42.17
2022-10-15T00:29:26.418Z,37.63
2022-10-15T00:31:52.869Z,44.03
2022-10-15T00:34:19.256Z,46.63
2022-10-15T00:36:45.769Z,37.53
2022-10-15T00:39:12.195Z,39.83
2022-10-15T00:41:41.873Z,44.97
2022-10-15T00:44:28.429Z,43.40
2022-10-15T00:46:59.243Z,45.17
2022-10-15T00:49:40.767Z,39.90
2022-10-15T00:52:11.010Z,45.17
2022-10-15T00:54:41.211Z,48.57
2022-10-15T00:57:08.423Z,48.10
2022-10-15T00:59:37.132Z,50.60
2022-10-15T01:02:03.549Z,47.77
2022-10-15T01:04:30.790Z,40.03
2022-10-15T01:06:57.169Z,46.60
2022-10-15T01:09:23.713Z,47.93
2022-10-15T01:11:54.754Z,50.93
2022-10-15T01:14:44.392Z,54.63
2022-10-15T01:17:13.715Z,54.33
2022-10-15T01:19:58.777Z,55.10
2022-10-15T01:23:02.807Z,62.87
2022-10-15T01:25:47.523Z,56.20
2022-10-15T01:28:16.810Z,63.13
2022-10-15T01:30:45.517Z,59.27
2022-10-15T01:33:23.085Z,67.70
2022-10-15T01:36:11.335Z,67.77
2022-10-15T01:39:00.708Z,68.43
2022-10-15T01:41:31.477Z,65.93
2022-10-15T01:44:04.923Z,62.47
2022-10-15T01:46:43.522Z,67.60
2022-10-15T01:49:12.492Z,66.13
2022-10-15T01:51:40.354Z,70.30
2022-10-15T01:54:10.153Z,69.20
2022-10-15T01:56:37.689Z,68.17
2022-10-15T01:59:05.255Z,69.00
2022-10-15T02:01:31.866Z,72.50
2022-10-15T02:03:58.619Z,75.93
2022-10-15T02:06:37.572Z,76.70
2022-10-15T02:09:42.808Z,71.40
2022-10-15T02:12:51.121Z,75.50
2022-10-15T02:15:19.277Z,76.43
2022-10-15T02:17:49.840Z,79.57
2022-10-15T02:20:24.563Z,90.20
2022-10-15T02:22:56.707Z,87.53
2022-10-15T02:25:24.642Z,81.77
2022-10-15T02:27:52.863Z,80.53
2022-10-15T02:30:19.615Z,79.97
2022-10-15T02:32:50.061Z,83.27
2022-10-15T02:35:16.766Z,88.57
2022-10-15T02:37:46.946Z,76.17
2022-10-15T02:40:13.434Z,76.83
2022-10-15T02:42:40.026Z,78.43
2022-10-15T02:45:07.199Z,82.10
2022-10-15T02:47:33.765Z,75.53
2022-10-15T02:50:00.355Z,80.70
2022-10-15T02:52:26.967Z,75.73
2022-10-15T02:54:53.409Z,84.17
2022-10-15T02:57:19.939Z,75.33
2022-10-15T02:59:46.325Z,86.53
2022-10-15T03:02:15.419Z,82.83
2022-10-15T03:04:44.881Z,86.30
2022-10-15T03:07:11.310Z,86.97
2022-10-15T03:09:37.704Z,85.97
2022-10-15T03:12:04.919Z,82.40
2022-10-15T03:14:31.489Z,88.50
2022-10-15T03:16:57.901Z,81.73
2022-10-15T03:19:24.296Z,75.90
2022-10-15T03:21:50.821Z,86.20
2022-10-15T03:24:17.196Z,84.07
2022-10-15T03:26:43.770Z,80.60
2022-10-15T03:29:10.187Z,72.43
2022-10-15T03:31:36.774Z,76.20
2022-10-15T03:34:03.254Z,75.53
2022-10-15T03:36:29.655Z,77.50
2022-10-15T03:38:56.224Z,69.83
2022-10-15T03:41:22.591Z,78.17
2022-10-15T03:43:48.980Z,69.53
2022-10-15T03:46:16.465Z,72.67
2022-10-15T03:48:42.900Z,70.03
2022-10-15T03:51:09.333Z,73.23
2022-10-15T03:53:35.875Z,74.30
2022-10-15T03:56:06.108Z,70.60
2022-10-15T03:58:32.686Z,65.63
2022-10-15T04:00:59.186Z,68.50
2022-10-15T04:03:25.686Z,72.90
2022-10-15T04:05:54.171Z,68.20
2022-10-15T04:08:21.763Z,69.43
2022-10-15T04:10:48.157Z,73.80
2022-10-15T04:13:14.568Z,73.93
2022-10-15T04:15:41.152Z,70.93
2022-10-15T04:18:07.737Z,66.97
2022-10-15T04:20:34.121Z,84.00
2022-10-15T04:23:00.537Z,82.03
2022-10-15T04:25:26.964Z,80.13
2022-10-15T04:27:53.790Z,78.77
2022-10-15T04:30:20.176Z,83.27
2022-10-15T04:32:46.646Z,76.43
2022-10-15T04:35:13.094Z,78.87
2022-10-15T04:37:39.513Z,81.67
2022-10-15T04:40:07.043Z,82.57
2022-10-15T04:42:33.474Z,87.33
2022-10-15T04:44:59.896Z,85.77
2022-10-15T04:47:26.764Z,83.37
2022-10-15T04:49:53.286Z,80.57
2022-10-15T04:52:20.302Z,78.07
2022-10-15T04:54:46.760Z,77.03
2022-10-15T04:57:13.372Z,83.83
2022-10-15T04:59:39.841Z,74.23
2022-10-15T05:02:06.307Z,81.23
2022-10-15T05:04:32.771Z,80.87
2022-10-15T05:06:59.161Z,73.30
2022-10-15T05:09:25.567Z,76.33
2022-10-15T05:11:52.004Z,78.53
2022-10-15T05:14:18.432Z,80.90
2022-10-15T05:16:44.805Z,83.90
2022-10-15T05:19:12.211Z,74.33
2022-10-15T05:21:38.695Z,79.77
2022-10-15T05:24:05.679Z,78.37
2022-10-15T05:26:32.551Z,79.30
2022-10-15T05:28:59.725Z,75.33
2022-10-15T05:31:30.024Z,84.80
2022-10-15T05:33:57.104Z,85.20
2022-10-15T05:36:27.422Z,84.93
2022-10-15T05:39:01.470Z,87.60
2022-10-15T05:41:28.851Z,83.60
2022-10-15T05:43:57.257Z,80.37
2022-10-15T05:46:23.896Z,89.97
2022-10-15T05:48:52.329Z,87.37
2022-10-15T05:51:19.120Z,88.27
2022-10-15T05:53:48.436Z,85.17
2022-10-15T05:56:15.254Z,91.90
2022-10-15T05:58:41.847Z,85.30
2022-10-15T06:01:10.939Z,76.53
2022-10-15T06:03:37.942Z,78.50
2022-10-15T06:06:04.821Z,87.30
2022-10-15T06:08:31.603Z,78.67
2022-10-15T06:11:09.345Z,83.03
2022-10-15T06:13:38.202Z,92.77
2022-10-15T06:16:04.764Z,84.40
2022-10-15T06:18:31.207Z,81.70
2022-10-15T06:20:57.624Z,84.03
2022-10-15T06:23:24.442Z,77.73
2022-10-15T06:25:51.330Z,86.70
2022-10-15T06:28:17.772Z,77.30
2022-10-15T06:30:44.305Z,77.30
2022-10-15T06:35:39.484Z,84.80
2022-10-15T06:38:05.899Z,77.50
2022-10-15T06:40:32.712Z,74.80
2022-10-15T06:43:07.915Z,77.73
2022-10-15T06:45:36.536Z,76.07
2022-10-15T06:48:06.358Z,81.83
2022-10-15T06:50:33.897Z,77.27
2022-10-15T06:53:00.514Z,80.43
2022-10-15T06:55:28.890Z,82.63
2022-10-15T06:57:59.206Z,78.73
2022-10-15T07:00:26.276Z,79.33
2022-10-15T07:02:52.844Z,77.40
2022-10-15T07:05:20.189Z,80.33
2022-10-15T07:07:53.784Z,79.33
2022-10-15T07:12:51.918Z,74.43
2022-10-15T07:15:19.131Z,78.13
2022-10-15T07:17:49.906Z,75.00
2022-10-15T07:20:20.247Z,79.60
2022-10-15T07:22:49.960Z,76.03
2022-10-15T07:25:16.416Z,70.77
2022-10-15T07:27:42.922Z,73.47
2022-10-15T07:30:10.040Z,67.17
2022-10-15T07:32:36.565Z,72.53
2022-10-15T07:35:03.226Z,70.07
2022-10-15T07:37:29.837Z,77.80
2022-10-15T07:39:56.303Z,69.70
2022-10-15T07:42:22.697Z,75.47
2022-10-15T07:44:49.101Z,67.13
2022-10-15T07:47:15.474Z,72.83
2022-10-15T07:49:41.927Z,72.40
2022-10-15T07:52:11.350Z,61.27
2022-10-15T07:54:37.882Z,69.83
2022-10-15T07:57:06.913Z,66.30
2022-10-15T07:59:34.321Z,69.23
2022-10-15T08:02:00.957Z,68.73
2022-10-15T08:04:28.540Z,72.93
2022-10-15T08:06:55.133Z,68.67
2022-10-15T08:09:21.738Z,70.80
2022-10-15T08:11:48.586Z,72.83
2022-10-15T08:14:15.080Z,71.13
2022-10-15T08:16:41.521Z,77.33
2022-10-15T08:19:08.006Z,63.30
2022-10-15T08:21:34.399Z,64.47
2022-10-15T08:24:00.890Z,59.00
2022-10-15T08:26:27.360Z,63.07
2022-10-15T08:28:53.829Z,62.67
2022-10-15T08:31:20.380Z,58.13
2022-10-15T08:33:46.758Z,58.17
2022-10-15T08:36:13.134Z,60.60
2022-10-15T08:38:39.573Z,54.17
2022-10-15T08:41:18.357Z,51.13
2022-10-15T08:43:46.629Z,56.97
2022-10-15T08:46:18.405Z,50.30
2022-10-15T08:48:47.962Z,48.10
2022-10-15T08:51:30.002Z,46.20
2022-10-15T08:53:58.499Z,44.67
2022-10-15T08:56:30.320Z,45.73
2022-10-15T08:59:14.545Z,42.13
2022-10-15T09:02:24.026Z,43.07
2022-10-15T09:05:16.433Z,38.47
2022-10-15T09:07:48.688Z,37.90
2022-10-15T09:10:40.126Z,34.50
2022-10-15T09:13:28.314Z,42.13
2022-10-15T09:16:12.320Z,48.67
2022-10-15T09:18:42.331Z,39.70
2022-10-15T09:21:09.322Z,39.33
2022-10-15T09:23:36.094Z,38.10
2022-10-15T09:26:06.533Z,32.17
2022-10-15T09:28:41.770Z,37.17
2022-10-15T09:31:10.207Z,32.63
2022-10-15T09:33:47.685Z,40.73
2022-10-15T09:36:26.303Z,35.30
2022-10-15T09:39:21.908Z,31.43
2022-10-15T09:41:56.722Z,31.83
2022-10-15T09:44:25.682Z,39.17
2022-10-15T09:46:52.421Z,37.93
2022-10-15T09:49:29.392Z,32.93
2022-10-15T09:52:08.693Z,33.80
2022-10-15T09:54:45.567Z,33.57
2022-10-15T09:57:13.335Z,32.93
2022-10-15T09:59:52.713Z,34.17
2022-10-15T10:02:21.351Z,32.23
2022-10-15T10:04:47.839Z,29.43
2022-10-15T10:07:37.024Z,27.67
2022-10-15T10:10:23.038Z,29.77
2022-10-15T10:12:49.529Z,29.53
2022-10-15T10:15:21.645Z,29.23
2022-10-15T10:17:55.961Z,27.57
2022-10-15T10:20:24.522Z,34.23
2022-10-15T10:22:55.335Z,30.60
2022-10-15T10:25:37.120Z,32.47
2022-10-15T10:28:09.872Z,31.40
2022-10-15T10:30:38.074Z,30.03
2022-10-15T10:33:05.179Z,30.23
2022-10-15T10:35:50.844Z,36.33
2022-10-15T10:38:22.613Z,33.00
2022-10-15T10:40:59.068Z,32.83
2022-10-15T10:43:28.925Z,35.97
2022-10-15T10:46:05.311Z,40.80
2022-10-15T10:48:46.079Z,36.13
2022-10-15T10:51:19.537Z,35.23
2022-10-15T10:53:58.266Z,33.50
2022-10-15T10:56:34.887Z,30.40
2022-10-15T10:59:21.125Z,34.70
2022-10-15T11:01:50.242Z,35.23
2022-10-15T11:04:24.775Z,44.93
2022-10-15T11:06:54.919Z,37.77
2022-10-15T11:09:56.868Z,39.80
2022-10-15T11:12:57.490Z,43.83
2022-10-15T11:15:28.875Z,44.03
2022-10-15T11:18:24.253Z,68.53
2022-10-15T11:21:03.097Z,49.60
2022-10-15T11:23:46.254Z,50.87
2022-10-15T11:26:52.479Z,44.93
2022-10-15T11:29:44.850Z,47.67
2022-10-15T11:32:42.435Z,50.57
2022-10-15T11:35:55.683Z,51.13
2022-10-15T11:38:29.543Z,78.33
2022-10-15T11:41:30.057Z,47.40
2022-10-15T11:44:08.707Z,41.40
2022-10-15T11:47:17.519Z,42.53
2022-10-15T11:49:50.918Z,40.33
2022-10-15T11:53:02.477Z,42.30
2022-10-15T11:55:37.399Z,39.67
2022-10-15T11:58:23.515Z,35.10
2022-10-15T12:00:52.897Z,40.70
2022-10-15T12:03:23.994Z,30.00
2022-10-15T12:05:54.019Z,25.80
2022-10-15T12:08:21.290Z,27.60
2022-10-15T12:11:04.689Z,23.30
2022-10-15T12:13:40.503Z,20.37
2022-10-15T12:16:32.262Z,18.87
2022-10-15T12:19:16.571Z,21.23
2022-10-15T12:21:55.109Z,22.20
2022-10-15T12:24:40.773Z,24.23
2022-10-15T12:27:19.664Z,20.17
2022-10-15T12:29:59.506Z,24.80
2022-10-15T12:32:31.281Z,22.43
2022-10-15T12:37:49.858Z,20.30
2022-10-15T12:40:21.899Z,20.60
2022-10-15T12:42:55.866Z,24.67
2022-10-15T12:45:24.601Z,21.87
2022-10-15T12:48:22.388Z,25.83
2022-10-15T12:50:49.151Z,23.90
2022-10-15T12:53:34.401Z,30.17
2022-10-15T12:56:10.048Z,25.20
2022-10-15T12:58:45.119Z,23.37
2022-10-15T13:01:14.569Z,19.63
2022-10-15T13:03:52.821Z,23.63
2022-10-15T13:06:22.497Z,25.10
2022-10-15T13:09:16.794Z,23.33
2022-10-15T13:11:45.973Z,21.47
2022-10-15T13:14:12.323Z,24.17
2022-10-15T13:16:43.624Z,23.70
2022-10-15T13:19:18.279Z,23.30
2022-10-15T13:22:04.468Z,24.17
2022-10-15T13:24:42.024Z,21.80
2022-10-15T13:27:22.024Z,22.57
2022-10-15T13:29:55.688Z,22.07
2022-10-15T13:32:23.050Z,24.00
2022-10-15T13:34:49.902Z,22.80
2022-10-15T13:37:24.842Z,25.87
2022-10-15T13:39:52.375Z,23.20
2022-10-15T13:42:23.883Z,29.43
2022-10-15T13:45:17.461Z,24.73
2022-10-15T13:47:52.679Z,26.30
2022-10-15T13:50:34.675Z,25.27
2022-10-15T13:53:24.174Z,26.43
2022-10-15T13:55:53.677Z,31.70
2022-10-15T13:58:27.623Z,27.37
2022-10-15T14:00:58.772Z,30.13
2022-10-15T14:03:27.513Z,30.67
2022-10-15T14:05:55.576Z,35.17
2022-10-15T14:08:24.850Z,35.03
2022-10-15T14:10:54.683Z,37.00
2022-10-15T14:13:21.303Z,35.20
2022-10-15T14:15:52.448Z,30.83
2022-10-15T14:18:28.385Z,33.17
2022-10-15T14:20:55.265Z,39.00
2022-10-15T14:23:26.274Z,38.90
2022-10-15T14:25:54.760Z,35.23
2022-10-15T14:28:22.870Z,35.57
2022-10-15T14:30:49.492Z,39.07
2022-10-15T14:33:38.008Z,36.07
2022-10-15T14:36:15.254Z,33.40
2022-10-15T14:38:42.303Z,29.60
2022-10-15T14:41:28.737Z,29.23
2022-10-15T14:44:05.748Z,36.13
2022-10-15T14:46:39.033Z,33.37
2022-10-15T14:49:15.578Z,34.33
2022-10-15T14:51:42.051Z,35.10
2022-10-15T14:54:19.318Z,32.07
2022-10-15T14:56:49.044Z,33.40
2022-10-15T14:59:18.771Z,35.30
2022-10-15T15:02:04.576Z,30.20
2022-10-15T15:04:39.994Z,32.10
2022-10-15T15:07:11.914Z,33.13
2022-10-15T15:09:39.936Z,30.57
2022-10-15T15:12:06.417Z,33.50
2022-10-15T15:14:32.915Z,32.13
2022-10-15T15:16:59.313Z,30.93
2022-10-15T15:19:25.719Z,32.43
2022-10-15T15:21:52.182Z,29.23
2022-10-15T15:24:18.646Z,28.77
2022-10-15T15:26:45.261Z,31.00
2022-10-15T15:29:13.948Z,28.50
2022-10-15T15:31:40.576Z,26.63
2022-10-15T15:34:07.079Z,26.00
2022-10-15T15:36:33.650Z,23.70
2022-10-15T15:39:00.126Z,21.07
2022-10-15T15:41:26.610Z,19.33
2022-10-15T15:43:54.862Z,25.20
2022-10-15T15:46:21.274Z,18.20
2022-10-15T15:48:47.887Z,16.90
2022-10-15T15:51:24.291Z,17.17
2022-10-15T15:53:51.040Z,18.97
2022-10-15T15:56:17.932Z,16.40
2022-10-15T15:58:44.702Z,14.13
2022-10-15T16:01:11.522Z,17.07
2022-10-15T16:03:38.153Z,13.60
2022-10-15T16:06:06.237Z,10.93
2022-10-15T16:08:33.116Z,9.57
2022-10-15T16:11:04.135Z,14.30
2022-10-15T16:13:30.810Z,14.23
2022-10-15T16:15:57.282Z,10.17
2022-10-15T16:18:23.824Z,12.20
2022-10-15T16:20:50.907Z,10.33
2022-10-15T16:23:17.502Z,10.53
2022-10-15T16:25:44.405Z,9.87
2022-10-15T16:28:10.914Z,8.30
2022-10-15T16:30:37.363Z,8.77
2022-10-15T16:33:09.795Z,9.37
2022-10-15T16:35:36.525Z,6.90
2022-10-15T16:38:02.974Z,7.17
2022-10-15T16:40:29.741Z,5.60
2022-10-15T16:42:56.294Z,9.40
2022-10-15T16:45:23.860Z,7.20
2022-10-15T16:47:50.495Z,6.87
2022-10-15T16:50:17.071Z,8.00
2022-10-15T16:52:43.475Z,5.37
2022-10-15T16:55:10.283Z,6.20
2022-10-15T16:57:36.886Z,5.47
2022-10-15T17:00:04.206Z,5.80
2022-10-15T17:02:30.768Z,6.30
2022-10-15T17:04:57.191Z,6.47
2022-10-15T17:07:24.111Z,5.80
2022-10-15T17:09:50.835Z,5.80
2022-10-15T17:12:17.659Z,4.87
2022-10-15T17:14:49.453Z,7.10
2022-10-15T17:17:15.865Z,4.83
2022-10-15T17:19:42.262Z,5.37
2022-10-15T17:22:08.663Z,8.03
2022-10-15T17:24:35.061Z,5.43
2022-10-15T17:27:01.491Z,6.97
2022-10-15T17:29:30.843Z,6.30
2022-10-15T17:32:00.545Z,6.27
2022-10-15T17:34:27.993Z,5.70
2022-10-15T17:36:55.976Z,5.90
2022-10-15T17:39:22.825Z,5.83
2022-10-15T17:41:50.810Z,6.30
2022-10-15T17:44:17.401Z,8.80
2022-10-15T17:46:43.921Z,7.60
2022-10-15T17:49:11.470Z,7.93
2022-10-15T17:51:37.960Z,6.37
2022-10-15T17:54:04.465Z,6.50
2022-10-15T17:56:32.858Z,8.50
2022-10-15T17:59:00.771Z,8.40
2022-10-15T18:01:58.655Z,7.90
2022-10-15T18:04:27.121Z,6.93
2022-10-15T18:06:53.591Z,9.10
2022-10-15T18:09:20.125Z,7.13
2022-10-15T18:11:48.130Z,8.53
2022-10-15T18:14:14.705Z,9.33
2022-10-15T18:16:41.122Z,7.13
2022-10-15T18:19:08.062Z,7.37
2022-10-15T18:21:34.566Z,9.00
2022-10-15T18:24:01.040Z,8.63
2022-10-15T18:26:27.556Z,9.40
2022-10-15T18:28:54.970Z,11.07
2022-10-15T18:31:22.261Z,9.10
2022-10-15T18:33:55.420Z,7.87
2022-10-15T18:36:24.638Z,8.93
2022-10-15T18:38:51.207Z,8.27
2022-10-15T18:41:21.012Z,10.80
2022-10-15T18:43:55.706Z,8.70
2022-10-15T18:46:22.479Z,9.60
2022-10-15T18:48:49.323Z,9.27
2022-10-15T18:51:15.748Z,8.83
2022-10-15T18:53:42.174Z,8.40
2022-10-15T18:56:09.319Z,10.27
2022-10-15T18:58:36.477Z,11.50
2022-10-15T19:01:33.839Z,11.57
2022-10-15T19:04:03.014Z,13.27
2022-10-15T19:06:35.654Z,10.93
2022-10-15T19:09:04.174Z,12.60
2022-10-15T19:11:31.483Z,11.50
2022-10-15T19:13:58.922Z,11.97
2022-10-15T19:16:25.536Z,12.30
2022-10-15T19:18:52.216Z,15.47
2022-10-15T19:21:18.638Z,11.83
2022-10-15T19:23:45.072Z,13.13
2022-10-15T19:26:12.677Z,18.13
2022-10-15T19:28:39.498Z,12.57
2022-10-15T19:31:08.025Z,17.13
2022-10-15T19:33:35.019Z,18.17
2022-10-15T19:36:01.540Z,15.70
2022-10-15T19:38:28.500Z,14.67
2022-10-15T19:40:55.326Z,13.67
2022-10-15T19:43:23.197Z,15.57
2022-10-15T19:45:50.072Z,15.43
2022-10-15T19:48:18.670Z,16.10
2022-10-15T19:50:47.003Z,15.50
2022-10-15T19:53:16.341Z,12.93
2022-10-15T19:55:43.915Z,14.93
2022-10-15T19:58:10.349Z,16.20
2022-10-15T20:00:37.220Z,16.07
2022-10-15T20:03:03.723Z,16.20
2022-10-15T20:05:30.120Z,14.30
2022-10-15T20:07:56.592Z,13.27
2022-10-15T20:10:25.889Z,13.63
2022-10-15T20:12:52.905Z,12.90
2022-10-15T20:15:19.454Z,13.07
2022-10-15T20:17:46.792Z,13.83
2022-10-15T20:20:13.230Z,14.07
2022-10-15T20:22:39.697Z,14.23
2022-10-15T20:25:06.246Z,12.33
2022-10-15T20:27:32.912Z,12.50
2022-10-15T20:29:59.315Z,13.03
2022-10-15T20:32:41.223Z,13.33
2022-10-15T20:35:08.369Z,14.17
2022-10-15T20:37:34.924Z,13.83
2022-10-15T20:40:01.382Z,13.27
2022-10-15T20:42:28.022Z,11.67
2022-10-15T20:44:54.791Z,16.43
2022-10-15T20:47:21.602Z,14.40
2022-10-15T20:49:49.704Z,13.73
2022-10-15T20:52:16.317Z,15.20
2022-10-15T20:54:42.789Z,14.53
2022-10-15T20:57:09.588Z,15.67
2022-10-15T20:59:36.022Z,15.10
2022-10-15T21:02:02.467Z,14.60
2022-10-15T21:04:28.983Z,14.10
2022-10-15T21:06:55.416Z,15.57
2022-10-15T21:09:21.887Z,15.57
2022-10-15T21:11:48.315Z,13.47
2022-10-15T21:14:15.097Z,15.90
2022-10-15T21:16:41.916Z,17.47
2022-10-15T21:19:08.693Z,18.87
2022-10-15T21:21:35.261Z,14.27
2022-10-15T21:24:01.728Z,17.00
2022-10-15T21:26:28.192Z,17.17
2022-10-15T21:28:59.146Z,16.50
2022-10-15T21:31:26.560Z,16.00
2022-10-15T21:33:54.911Z,15.13
2022-10-15T21:36:28.487Z,20.03
2022-10-15T21:39:03.535Z,16.33
2022-10-15T21:41:32.465Z,18.27
2022-10-15T21:44:00.489Z,24.57
2022-10-15T21:46:27.775Z,18.50
2022-10-15T21:48:54.317Z,24.83
2022-10-15T21:51:26.303Z,21.97
2022-10-15T21:53:53.849Z,20.80
2022-10-15T21:56:20.346Z,21.17
2022-10-15T21:58:46.839Z,16.67
2022-10-15T22:01:23.591Z,22.17
2022-10-15T22:03:52.242Z,22.90
2022-10-15T22:06:20.547Z,20.00
2022-10-15T22:08:47.447Z,19.87
2022-10-15T22:11:16.902Z,20.27
2022-10-15T22:13:45.486Z,20.10
2022-10-15T22:16:13.107Z,26.50
2022-10-15T22:18:40.062Z,22.87
2022-10-15T22:21:15.630Z,19.67
2022-10-15T22:23:47.356Z,17.87
2022-10-15T22:26:15.147Z,22.67
2022-10-15T22:28:42.036Z,17.83
2022-10-15T22:31:11.463Z,16.77
2022-10-15T22:33:38.714Z,18.67
2022-10-15T22:36:13.338Z,15.03
2022-10-15T22:38:40.861Z,14.63
2022-10-15T22:41:07.658Z,15.80
2022-10-15T22:43:34.563Z,19.03
2022-10-15T22:46:01.062Z,13.30
2022-10-15T22:48:27.514Z,14.40
2022-10-15T22:51:01.054Z,14.43
2022-10-15T22:53:27.802Z,18.93
2022-10-15T22:55:56.108Z,12.13
2022-10-15T22:58:22.937Z,8.70
2022-10-15T23:00:49.372Z,9.17
2022-10-15T23:03:15.835Z,7.57
2022-10-15T23:05:42.329Z,11.80
2022-10-15T23:08:08.775Z,11.87
2022-10-15T23:10:35.592Z,14.33
2022-10-15T23:13:02.016Z,10.93
2022-10-15T23:15:28.614Z,9.30
2022-10-15T23:17:55.001Z,5.60
2022-10-15T23:20:21.563Z,5.63
2022-10-15T23:22:48.005Z,7.53
2022-10-15T23:25:14.504Z,7.33
2022-10-15T23:27:40.928Z,5.30
2022-10-15T23:30:14.700Z,6.80
2022-10-15T23:32:50.621Z,8.53
2022-10-15T23:35:17.043Z,6.10
2022-10-15T23:37:43.839Z,4.47
2022-10-15T23:40:10.595Z,8.03
2022-10-15T23:42:36.977Z,6.20
2022-10-15T23:45:03.800Z,9.23
2022-10-15T23:47:30.364Z,7.40
2022-10-15T23:49:57.100Z,8.43
2022-10-15T23:52:23.584Z,8.57
2022-10-15T23:54:51.142Z,5.73
2022-10-15T23:57:17.573Z,6.70
2022-10-15T23:59:44.008Z,7.70
